KRYN

Ryan Field Airport

Tucson, Arizona, USA
METAR KRYN 170245Z 10006KT 10SM OVC047 17/07 A3006 RMK LAST
Observed Flight Rules
Oct-17 @ 02:45 UTC (an hour ago) Visual Flight Rules
Wind Visibility Clouds
100° at 6 knots 10 miles
  • Overcast at 4,700' AGL
Temperatures Readings
Current 17°C / 63°F
Dewpoint 7°C / 45°F
Humidity 52%
Altimeter 30.06" Hg
Pressure 1018 hPa
Elevation 737
METAR KRYN 170245Z 10006KT 10SM OVC047 17/07 A3006 RMK LAST
Observed Flight Rules
Oct-17 @ 02:45 UTC
(an hour ago)
VFR
Wind Visibility
100° at 6 knots 10 miles
Clouds
  • Overcast at 4,700' AGL
Temperature Dewpoint
17°C / 63°F 7°C / 45°F
Humidity Altimeter Pressure
52% 30.06" Hg 1018 hPa